Friday, May 22, 2015, 6:08 PM EDT

KDYL, Doylestown Airport

Location: Doylestown, PA, United States Lat: 40.333
Local Time: 6:08 PM EDT (22:08 GMT) Lon: -75.117
Time Zone: US/Eastern Elev: 393 ft

Show me the last for .
Show Decoded

2015-05-22 17:54 METAR KDYL 222154Z AUTO 32006G15KT 10SM FEW095 18/07 A2999 RMK AO2 PK WND
                 33033/2121 WSHFT 2110 SLP157 T01830067 =
2015-05-22 17:30 METAR KDYL 222130Z AUTO 32013G33KT 10SM BKN085 18/07 A3000 RMK AO2 PK WND
                 33033/2121 WSHFT 2110 T01780072 =
2015-05-22 15:54 METAR KDYL 221954Z AUTO 29011G22KT 10SM SCT095 BKN110 22/04 A2997 RMK AO2 SLP147
                 T02170044 =
2015-05-22 14:54 METAR KDYL 221854Z AUTO 27012G23KT 10SM FEW065 FEW080 SCT095 22/04 A2997 RMK AO2
                 SLP146 T02220044 =
2015-05-22 13:54 METAR KDYL 221754Z AUTO 28011G24KT 10SM BKN065 BKN080 21/04 A2997 RMK AO2 SLP148
                 T02060044 10222 20122 58001 =
2015-05-22 12:54 METAR KDYL 221654Z AUTO 27015G24KT 10SM SCT065 21/04 A2997 RMK AO2 SLP149
                 T02110039 =
2015-05-22 11:54 METAR KDYL 221554Z AUTO 27009G19KT 230V300 10SM CLR 21/04 A2997 RMK AO2 SLP149
                 T02060044 =
2015-05-22 10:54 METAR KDYL 221454Z AUTO 29011G18KT 10SM CLR 20/04 A2997 RMK AO2 SLP149 T02000044
                 51006 =
2015-05-22 09:54 METAR KDYL 221354Z AUTO VRB06KT 10SM CLR 17/04 A2997 RMK AO2 SLP149 T01720044 =
2015-05-22 08:54 METAR KDYL 221254Z AUTO 31008KT 10SM CLR 15/04 A2996 RMK AO2 SLP147 T01500044 =
2015-05-22 07:54 METAR KDYL 221154Z AUTO 29010KT 10SM CLR 12/05 A2995 RMK AO2 SLP144 T01220050
                 10122 20089 51016 =
2015-05-22 06:54 METAR KDYL 221054Z AUTO 32006KT 10SM CLR 10/06 A2995 RMK AO2 SLP142 T01000056 =
2015-05-22 05:54 METAR KDYL 220954Z AUTO VRB05KT 10SM CLR 09/06 A2993 RMK AO2 SLP137 T00890061 =
2015-05-22 04:54 METAR KDYL 220854Z AUTO 31005KT 10SM CLR 09/07 A2990 RMK AO2 SLP128 T00890067
                 53006 =
2015-05-22 02:54 METAR KDYL 220654Z AUTO 30004KT 10SM OVC060 10/06 A2988 RMK AO2 SLP118 T01000061
                 =
2015-05-22 01:54 METAR KDYL 220554Z AUTO 00000KT 10SM OVC046 10/06 A2989 RMK AO2 SLP122 T01000061
                 10100 20078 58004 =
2015-05-22 00:54 METAR KDYL 220454Z AUTO 00000KT 10SM OVC055 09/08 A2989 RMK AO2 SLP123 T00940078
                 401220078 =
2015-05-21 23:54 METAR KDYL 220354Z AUTO 00000KT 10SM SCT060 BKN095 09/08 A2990 RMK AO2 SLP126
                 T00890078 =
2015-05-21 22:54 METAR KDYL 220254Z AUTO 00000KT 10SM SCT070 BKN100 09/08 A2990 RMK AO2 SLP126
                 T00940083 58007 =
2015-05-21 21:54 METAR KDYL 220154Z AUTO 00000KT 10SM OVC065 10/08 A2991 RMK AO2 SLP131 T01000083
                 =
2015-05-21 20:54 METAR KDYL 220054Z AUTO 00000KT 10SM SCT031 OVC065 10/08 A2992 RMK AO2 SLP133
                 T01000078 =
2015-05-21 19:54 METAR KDYL 212354Z AUTO 00000KT 10SM OVC030 10/07 A2992 RMK AO2 SLP133 60000
                 T01000072 10117 20100 55004 =
2015-05-21 18:54 METAR KDYL 212254Z AUTO 16004KT 10SM OVC034 11/07 A2991 RMK AO2 SLP131 T01060072
                 =

Support USWX by starting your Amazon purchase here.